Time;durP1;ratioP1;P1;durP2;ratioP2;P2;SDS_P1;SDS_P2;PMS_P1;PMS_P2;Temp;Humidity;BMP_temperature;BMP_pressure;BME280_temperature;BME280_humidity;BME280_pressure;Samples;Min_cycle;Max_cycle;Signal;HPM_P1;HPM_P2
2024/02/07 00:01:29;;;;;;;9.50;3.45;;;;;;;11.23;100.00;99446.22;4948211;28;97032;-76
2024/02/07 00:03:55;;;;;;;9.52;2.80;;;;;;;11.18;100.00;99450.94;4945263;28;97593;-75
2024/02/07 00:06:21;;;;;;;8.02;2.88;;;;;;;11.37;100.00;99429.53;4944403;28;96910;-76
2024/02/07 00:08:48;;;;;;;9.32;3.42;;;;;;;11.52;100.00;99426.84;4944023;28;97786;-75
2024/02/07 00:11:14;;;;;;;10.88;2.83;;;;;;;11.62;100.00;99413.88;4946776;28;100047;-76
2024/02/07 00:13:42;;;;;;;13.15;3.25;;;;;;;11.35;100.00;99407.63;4947606;28;98852;-75
2024/02/07 00:16:08;;;;;;;16.58;4.88;;;;;;;11.14;100.00;99402.69;4948241;28;98952;-75
2024/02/07 00:18:35;;;;;;;9.65;3.60;;;;;;;10.94;100.00;99407.44;4945345;28;97141;-70
2024/02/07 00:21:01;;;;;;;7.03;2.90;;;;;;;11.01;100.00;99406.13;4948788;28;97118;-71
2024/02/07 00:23:28;;;;;;;9.82;2.60;;;;;;;11.09;100.00;99411.81;4945098;28;99270;-69
2024/02/07 00:25:57;;;;;;;9.55;2.90;;;;;;;11.25;100.00;99402.03;4947308;28;99306;-68
2024/02/07 00:28:23;;;;;;;10.10;3.10;;;;;;;11.01;100.00;99395.56;4943428;28;97552;-70
2024/02/07 00:30:52;;;;;;;8.70;2.80;;;;;;;11.36;100.00;99378.44;4946390;28;97878;-69
2024/02/07 00:33:18;;;;;;;9.98;3.40;;;;;;;11.11;100.00;99386.97;4947402;28;99019;-70
2024/02/07 00:35:44;;;;;;;9.43;3.00;;;;;;;11.25;100.00;99380.03;4947223;28;99206;-70
2024/02/07 00:38:12;;;;;;;13.52;2.95;;;;;;;11.21;100.00;99379.38;4942972;28;97972;-70
2024/02/07 00:40:39;;;;;;;9.77;3.05;;;;;;;11.15;100.00;99377.09;4947825;28;97310;-70
2024/02/07 00:43:05;;;;;;;9.25;2.78;;;;;;;11.06;100.00;99372.34;4948975;28;98758;-70
2024/02/07 00:45:32;;;;;;;12.45;3.17;;;;;;;10.98;100.00;99383.34;4948262;28;99173;-70
2024/02/07 00:48:00;;;;;;;9.10;2.33;;;;;;;10.87;100.00;99369.06;4949446;28;96949;-70
2024/02/07 00:50:26;;;;;;;6.13;2.80;;;;;;;11.15;100.00;99337.44;4948520;28;97301;-69
2024/02/07 00:52:53;;;;;;;7.47;2.67;;;;;;;11.02;100.00;99386.69;4946141;28;101272;-69
2024/02/07 00:55:19;;;;;;;9.30;3.13;;;;;;;10.73;100.00;99369.88;4946126;28;98782;-69
2024/02/07 00:57:46;;;;;;;11.10;2.70;;;;;;;11.21;100.00;99336.22;4946674;28;97395;-68
2024/02/07 01:00:15;;;;;;;12.13;2.63;;;;;;;11.57;100.00;99350.69;4929867;28;97887;-69
2024/02/07 01:02:41;;;;;;;8.43;2.53;;;;;;;11.45;100.00;99375.25;4946638;28;99252;-70
2024/02/07 01:05:10;;;;;;;11.27;2.75;;;;;;;11.38;100.00;99365.97;4946823;28;99199;-68
2024/02/07 01:07:37;;;;;;;7.38;2.17;;;;;;;11.40;100.00;99350.03;4948585;28;97986;-69
2024/02/07 01:10:04;;;;;;;7.93;2.90;;;;;;;11.34;100.00;99404.16;4945142;28;96940;-69
2024/02/07 01:12:31;;;;;;;13.55;3.80;;;;;;;12.07;100.00;99428.81;4946467;28;98909;-69
2024/02/07 01:14:57;;;;;;;3.78;1.40;;;;;;;12.43;99.10;99430.06;4949946;28;97769;-70
2024/02/07 01:17:24;;;;;;;4.75;1.55;;;;;;;12.86;96.66;99459.97;4947934;28;96805;-69
2024/02/07 01:19:52;;;;;;;4.95;1.30;;;;;;;12.68;94.79;99473.44;4945567;28;96795;-69
2024/02/07 01:22:20;;;;;;;2.00;1.00;;;;;;;12.89;92.84;99457.94;4945781;28;98094;-69
2024/02/07 01:24:47;;;;;;;2.20;0.50;;;;;;;12.68;90.79;99480.53;4946013;28;97782;-69
2024/02/07 01:27:14;;;;;;;1.35;0.40;;;;;;;12.84;89.94;99485.72;4951213;28;97321;-70
2024/02/07 01:29:40;;;;;;;0.68;0.20;;;;;;;12.80;87.13;99479.75;4944996;28;96786;-70
2024/02/07 01:32:07;;;;;;;1.35;0.40;;;;;;;12.69;86.46;99483.09;4944464;28;99355;-70
2024/02/07 01:34:33;;;;;;;6.43;0.30;;;;;;;12.28;87.57;99483.03;4950074;28;99459;-70
2024/02/07 01:37:00;;;;;;;0.50;0.20;;;;;;;12.35;89.11;99483.50;4944703;28;98083;-70
2024/02/07 01:39:27;;;;;;;0.75;0.30;;;;;;;12.56;86.99;99497.22;4944997;28;97122;-67
2024/02/07 01:41:59;;;;;;;1.17;0.25;;;;;;;12.70;85.65;99513.09;4943045;28;98046;-69
2024/02/07 01:44:25;;;;;;;0.75;0.10;;;;;;;12.28;85.12;99506.88;4944710;28;98746;-69
2024/02/07 01:46:53;;;;;;;1.65;0.20;;;;;;;12.20;85.98;99503.88;4946493;28;98259;-69
2024/02/07 01:49:20;;;;;;;2.33;0.50;;;;;;;11.71;87.68;99515.69;4948523;28;96931;-71
2024/02/07 01:51:48;;;;;;;0.50;0.28;;;;;;;11.76;85.76;99511.00;4942210;28;99113;-69
2024/02/07 01:54:15;;;;;;;1.05;0.20;;;;;;;11.49;85.69;99513.44;4948395;28;98530;-70
2024/02/07 01:56:43;;;;;;;1.25;0.28;;;;;;;11.83;84.98;99517.63;4948047;28;97342;-69
2024/02/07 01:59:10;;;;;;;1.25;0.30;;;;;;;11.73;84.18;99521.75;4947217;28;96822;-69
2024/02/07 02:01:37;;;;;;;5.13;0.20;;;;;;;11.63;83.56;99520.56;4947171;28;99295;-69
2024/02/07 02:04:04;;;;;;;2.63;0.30;;;;;;;11.43;83.97;99512.03;4945131;28;99171;-69
2024/02/07 02:06:30;;;;;;;1.88;0.22;;;;;;;11.51;81.96;99523.00;4946538;28;98197;-69
2024/02/07 02:08:58;;;;;;;1.80;0.30;;;;;;;11.60;80.23;99518.97;4945268;28;97192;-69
2024/02/07 02:11:36;;;;;;;1.77;0.30;;;;;;;11.27;81.31;99521.81;4948256;28;98998;-69
2024/02/07 02:14:04;;;;;;;1.60;0.30;;;;;;;11.43;80.50;99519.09;4951689;28;99086;-69
2024/02/07 02:16:30;;;;;;;8.60;0.50;;;;;;;11.01;81.31;99514.50;4950937;28;98918;-69
2024/02/07 02:18:57;;;;;;;5.28;0.20;;;;;;;10.82;82.91;99533.19;4949127;28;97644;-69
2024/02/07 02:21:26;;;;;;;2.40;0.30;;;;;;;11.09;81.90;99515.75;4948921;28;99095;-69
2024/02/07 02:24:15;;;;;;;1.55;0.40;;;;;;;11.36;80.98;99517.75;4949972;28;101305;-69
2024/02/07 02:26:59;;;;;;;2.67;0.30;;;;;;;11.16;80.58;99516.25;4952964;28;97277;-69
2024/02/07 02:29:36;;;;;;;0.77;0.20;;;;;;;10.82;82.06;99512.03;4946678;28;97873;-69
2024/02/07 02:32:03;;;;;;;2.35;0.22;;;;;;;11.23;82.42;99522.91;4949129;28;101228;-69
2024/02/07 02:34:31;;;;;;;1.48;0.32;;;;;;;11.22;81.04;99523.88;4952050;28;98943;-69
2024/02/07 02:37:00;;;;;;;2.70;0.38;;;;;;;11.32;81.11;99511.81;4948191;28;97652;-70
2024/02/07 02:39:28;;;;;;;0.73;0.32;;;;;;;11.08;81.34;99518.50;4948391;28;96943;-69
2024/02/07 02:41:54;;;;;;;1.08;0.20;;;;;;;11.27;80.79;99519.16;4945131;28;99128;-69
2024/02/07 02:44:21;;;;;;;4.28;0.52;;;;;;;11.50;79.24;99517.81;4948608;28;99150;-69
2024/02/07 02:46:49;;;;;;;1.63;0.20;;;;;;;11.25;79.43;99514.88;4945637;28;97531;-68
2024/02/07 02:49:15;;;;;;;1.15;0.20;;;;;;;11.31;79.39;99520.66;4946718;28;97037;-68
2024/02/07 02:51:42;;;;;;;1.38;0.32;;;;;;;11.52;78.84;99514.13;4948029;28;99045;-68
2024/02/07 02:54:08;;;;;;;2.55;0.30;;;;;;;10.90;80.42;99514.22;4947356;28;99189;-68
2024/02/07 02:56:36;;;;;;;1.63;0.20;;;;;;;11.01;80.87;99522.44;4952158;28;96733;-70
2024/02/07 02:59:05;;;;;;;2.58;0.40;;;;;;;10.83;80.87;99528.75;4948201;28;96800;-69
2024/02/07 03:01:32;;;;;;;1.58;0.20;;;;;;;10.64;81.65;99535.03;4951590;28;99331;-69
2024/02/07 03:03:59;;;;;;;1.00;0.10;;;;;;;10.91;80.81;99542.38;4948031;28;98738;-69
2024/02/07 03:06:50;;;;;;;2.28;0.17;;;;;;;10.52;81.76;99540.97;4952974;28;97207;-69
2024/02/07 03:09:20;;;;;;;1.25;0.20;;;;;;;10.67;81.40;99542.81;4945073;28;96940;-68
2024/02/07 03:11:48;;;;;;;1.85;0.20;;;;;;;10.48;82.06;99549.16;4947780;28;98826;-68
2024/02/07 03:14:15;;;;;;;0.52;0.20;;;;;;;10.48;81.84;99534.19;4950494;28;98967;-69
2024/02/07 03:16:42;;;;;;;2.92;0.10;;;;;;;10.23;82.54;99539.06;4946596;28;96741;-69
2024/02/07 03:19:09;;;;;;;2.28;0.30;;;;;;;10.28;82.80;99550.22;4949322;28;97311;-69
2024/02/07 03:21:36;;;;;;;1.75;0.30;;;;;;;10.47;82.81;99552.75;4949729;28;99065;-70
2024/02/07 03:24:03;;;;;;;1.08;0.10;;;;;;;10.69;82.11;99558.56;4948110;28;99170;-69
2024/02/07 03:26:29;;;;;;;1.17;0.17;;;;;;;11.00;80.63;99558.59;4947702;28;96945;-69
2024/02/07 03:28:56;;;;;;;3.53;0.63;;;;;;;10.72;80.68;99553.97;4946121;28;97186;-69
2024/02/07 03:31:22;;;;;;;1.55;0.30;;;;;;;10.25;84.00;99553.88;4945240;28;99029;-68
2024/02/07 03:33:49;;;;;;;2.33;0.20;;;;;;;10.49;81.46;99558.81;4947168;28;98784;-68
2024/02/07 03:36:17;;;;;;;2.78;0.22;;;;;;;10.36;81.52;99559.47;4941881;28;97487;-68
2024/02/07 03:38:44;;;;;;;0.65;0.20;;;;;;;10.20;81.56;99565.63;4948357;28;97297;-69
2024/02/07 03:41:10;;;;;;;4.03;0.30;;;;;;;9.98;80.87;99571.13;4943137;28;98800;-68
2024/02/07 03:43:37;;;;;;;2.63;0.40;;;;;;;10.00;78.34;99563.97;4947400;28;98953;-68
2024/02/07 03:46:05;;;;;;;1.88;0.40;;;;;;;9.48;78.76;99558.72;4945911;28;96819;-68
2024/02/07 03:48:32;;;;;;;2.22;0.20;;;;;;;9.27;79.38;99553.63;4946525;28;97171;-69
2024/02/07 03:50:58;;;;;;;1.45;0.30;;;;;;;9.48;78.44;99553.44;4944938;28;98828;-71
2024/02/07 03:53:27;;;;;;;1.77;0.15;;;;;;;9.33;79.00;99556.81;4945666;28;99043;-69
2024/02/07 03:55:53;;;;;;;1.67;0.20;;;;;;;9.48;77.08;99563.13;4945470;28;96756;-69
2024/02/07 03:58:21;;;;;;;2.38;0.40;;;;;;;9.07;79.01;99552.81;4945755;28;97129;-68
2024/02/07 04:00:49;;;;;;;3.72;0.55;;;;;;;9.20;79.31;99556.56;4935099;28;100070;-68
2024/02/07 04:03:15;;;;;;;1.52;0.40;;;;;;;8.65;81.85;99562.78;4946154;28;101489;-67
2024/02/07 04:05:43;;;;;;;2.25;0.50;;;;;;;8.05;82.18;99569.84;4943749;28;96837;-69
2024/02/07 04:08:09;;;;;;;6.57;0.70;;;;;;;8.62;81.74;99563.75;4945721;28;98732;-68
2024/02/07 04:10:41;;;;;;;2.38;0.52;;;;;;;8.70;80.59;99577.44;4944744;28;98815;-68
2024/02/07 05:15:51;;;;;;;2.65;0.60;;;;;;;6.84;91.61;99567.00;4945690;28;97532;-68
2024/02/07 05:18:18;;;;;;;2.22;0.45;;;;;;;6.74;92.34;99561.25;4944085;28;98869;-68
2024/02/07 05:20:45;;;;;;;3.20;0.32;;;;;;;6.56;90.87;99552.34;4945140;28;97271;-69
2024/02/07 05:23:11;;;;;;;3.10;0.40;;;;;;;6.51;92.50;99559.50;4941547;28;98259;-69
2024/02/07 05:25:38;;;;;;;4.88;0.65;;;;;;;5.81;95.90;99562.03;4945378;28;99145;-70
2024/02/07 05:28:05;;;;;;;2.45;0.45;;;;;;;6.27;95.21;99558.66;4947025;28;99008;-69
2024/02/07 05:30:31;;;;;;;1.80;0.30;;;;;;;6.19;93.90;99550.19;4943141;28;97298;-69
2024/02/07 05:32:59;;;;;;;4.80;0.43;;;;;;;6.06;96.32;99556.81;4941671;28;96794;-69
2024/02/07 05:35:25;;;;;;;4.50;0.40;;;;;;;5.93;95.43;99559.00;4941792;28;99063;-69
2024/02/07 05:37:52;;;;;;;3.78;0.43;;;;;;;5.78;96.87;99572.59;4942738;28;99297;-70
2024/02/07 05:40:19;;;;;;;1.52;0.40;;;;;;;5.34;99.02;99571.50;4942311;28;96877;-69
2024/02/07 05:42:45;;;;;;;1.35;0.30;;;;;;;5.78;98.61;99572.59;4945609;28;98790;-69
2024/02/07 05:45:11;;;;;;;1.50;0.50;;;;;;;6.04;96.98;99584.00;4945137;28;99056;-70
2024/02/07 05:47:37;;;;;;;5.20;0.30;;;;;;;5.85;98.23;99576.72;4941713;28;99289;-70
2024/02/07 05:50:09;;;;;;;5.32;1.05;;;;;;;5.93;98.11;99584.38;4944169;28;98850;-69
2024/02/07 05:52:35;;;;;;;1.00;0.30;;;;;;;5.73;97.98;99574.53;4946095;28;98015;-70
2024/02/07 05:55:02;;;;;;;3.60;0.70;;;;;;;6.15;97.56;99585.34;4941517;28;99201;-69
2024/02/07 05:57:29;;;;;;;6.22;0.50;;;;;;;6.05;96.13;99590.94;4944217;28;98948;-69
2024/02/07 05:59:55;;;;;;;5.72;0.60;;;;;;;5.96;96.32;99585.13;4944268;28;96721;-69
2024/02/07 06:02:22;;;;;;;4.85;0.50;;;;;;;6.16;96.95;99597.53;4944158;28;96856;-70
2024/02/07 06:04:51;;;;;;;4.78;1.38;;;;;;;6.20;94.55;99591.25;4944511;28;99308;-69
2024/02/07 06:07:18;;;;;;;4.38;0.50;;;;;;;5.65;96.81;99597.53;4938978;28;98873;-70
2024/02/07 06:09:45;;;;;;;9.20;1.80;;;;;;;6.41;96.02;99602.75;4942580;28;97283;-70
2024/02/07 06:12:12;;;;;;;7.20;0.70;;;;;;;6.11;95.53;99601.22;4943473;28;97931;-70
2024/02/07 06:14:39;;;;;;;7.55;0.68;;;;;;;6.03;96.92;99603.28;4945915;28;98974;-70
2024/02/07 06:17:06;;;;;;;6.13;1.10;;;;;;;5.90;96.62;99585.34;4947371;28;101270;-69
2024/02/07 06:19:32;;;;;;;5.30;0.57;;;;;;;6.41;95.51;99594.88;4935264;28;96813;-70
2024/02/07 06:21:59;;;;;;;5.47;0.52;;;;;;;6.62;93.21;99598.47;4946013;28;98204;-69
2024/02/07 06:24:26;;;;;;;5.07;0.52;;;;;;;6.90;91.88;99600.88;4942344;28;98839;-70
2024/02/07 06:26:53;;;;;;;6.93;0.55;;;;;;;6.70;91.41;99597.25;4945428;28;98129;-68
2024/02/07 06:29:19;;;;;;;9.18;1.08;;;;;;;6.35;94.17;99600.34;4948021;28;97365;-67
2024/02/07 06:31:45;;;;;;;5.03;0.70;;;;;;;6.50;93.16;99594.53;4946132;28;97138;-68
2024/02/07 06:34:12;;;;;;;7.22;0.80;;;;;;;6.52;93.29;99602.34;4948166;28;98115;-69
2024/02/07 06:36:38;;;;;;;14.05;1.13;;;;;;;6.68;92.86;99606.97;4951023;28;98896;-69
2024/02/07 06:39:04;;;;;;;4.00;0.73;;;;;;;6.70;92.00;99601.66;4947465;28;97113;-68
2024/02/07 06:41:32;;;;;;;5.72;0.70;;;;;;;6.66;92.67;99590.44;4946558;28;98553;-68
2024/02/07 06:43:58;;;;;;;5.43;0.60;;;;;;;6.81;92.86;99594.25;4946140;28;98964;-68
2024/02/07 06:46:25;;;;;;;5.43;0.55;;;;;;;6.67;92.39;99596.53;4945896;28;100316;-68
2024/02/07 06:48:51;;;;;;;5.60;0.77;;;;;;;6.69;93.54;99603.44;4946409;28;97757;-68
2024/02/07 06:51:18;;;;;;;4.20;0.57;;;;;;;6.76;91.49;99602.28;4943480;28;97287;-68
2024/02/07 06:53:44;;;;;;;5.82;0.45;;;;;;;6.41;93.18;99602.75;4943510;28;98097;-68
2024/02/07 06:56:11;;;;;;;4.18;0.73;;;;;;;6.91;92.29;99610.47;4947930;28;99324;-68
2024/02/07 06:58:38;;;;;;;6.70;0.73;;;;;;;6.50;92.97;99615.50;4946823;28;96847;-69
2024/02/07 07:01:05;;;;;;;5.85;0.88;;;;;;;6.68;93.18;99620.09;4938132;28;98086;-68
2024/02/07 07:03:31;;;;;;;7.22;0.80;;;;;;;6.54;93.25;99617.13;4942890;28;98355;-68
2024/02/07 07:05:58;;;;;;;7.47;0.80;;;;;;;6.59;94.36;99617.81;4940196;28;99452;-69
2024/02/07 07:08:24;;;;;;;10.75;1.55;;;;;;;6.53;94.49;99617.19;4941739;28;97690;-70
2024/02/07 07:10:51;;;;;;;5.78;0.77;;;;;;;6.85;92.91;99627.34;4947211;28;97513;-69
2024/02/07 07:13:17;;;;;;;9.60;0.85;;;;;;;7.03;91.73;99631.88;4942660;28;100537;-69
2024/02/07 07:15:47;;;;;;;5.47;0.57;;;;;;;6.61;91.65;99623.88;4946893;28;99058;-70
2024/02/07 07:18:14;;;;;;;5.35;0.88;;;;;;;6.62;93.62;99619.47;4945524;28;97493;-71
2024/02/07 07:20:41;;;;;;;12.57;1.05;;;;;;;6.41;95.07;99631.63;4941432;28;97610;-70
2024/02/07 07:23:07;;;;;;;5.80;1.10;;;;;;;6.62;93.92;99632.59;4948742;28;97662;-70
2024/02/07 07:25:33;;;;;;;7.45;0.90;;;;;;;6.61;95.15;99633.50;4949749;28;101351;-70
2024/02/07 07:27:59;;;;;;;12.25;1.48;;;;;;;6.18;95.73;99644.69;4947405;28;97139;-69
2024/02/07 07:30:26;;;;;;;6.50;0.90;;;;;;;6.64;95.67;99638.63;4947461;28;97652;-76
2024/02/07 07:32:53;;;;;;;4.53;0.80;;;;;;;6.89;93.24;99641.22;4943288;28;101873;-76
2024/02/07 07:35:19;;;;;;;7.25;1.23;;;;;;;6.84;92.86;99646.63;4949608;28;99345;-76
2024/02/07 07:37:45;;;;;;;;;;;;;;;6.91;93.60;99644.63;4951531;28;97272;-76
2024/02/07 07:40:12;;;;;;;6.82;1.27;;;;;;;6.78;93.34;99644.22;4946391;28;97317;-69
2024/02/07 07:42:38;;;;;;;6.65;1.00;;;;;;;6.56;94.75;99651.22;4950332;28;98974;-70
2024/02/07 07:45:05;;;;;;;9.63;0.80;;;;;;;6.67;94.08;99647.28;4936448;28;99820;-69
2024/02/07 07:47:31;;;;;;;6.90;1.02;;;;;;;6.65;95.41;99659.59;4945827;28;97861;-70
2024/02/07 07:49:59;;;;;;;3.92;0.88;;;;;;;6.43;95.89;99652.56;4950388;28;97004;-69
2024/02/07 07:52:25;;;;;;;4.85;0.90;;;;;;;6.39;96.47;99657.03;4946045;28;99182;-77
2024/02/07 07:54:52;;;;;;;7.53;1.30;;;;;;;6.48;96.45;99661.97;4943958;28;101989;-76
2024/02/07 07:57:18;;;;;;;8.20;1.20;;;;;;;6.64;95.52;99670.13;4946922;28;98014;-76
2024/02/07 07:59:44;;;;;;;7.63;1.58;;;;;;;6.38;96.54;99663.19;4944631;28;97192;-76
2024/02/07 08:02:11;;;;;;;5.43;1.02;;;;;;;6.55;96.21;99668.72;4943980;28;98413;-75
2024/02/07 08:04:37;;;;;;;11.52;1.63;;;;;;;6.87;94.57;99671.94;4945546;28;101562;-76
2024/02/07 08:07:08;;;;;;;8.35;1.35;;;;;;;6.99;93.43;99666.22;4947130;28;97124;-77
2024/02/07 08:09:35;;;;;;;10.25;1.40;;;;;;;6.67;93.75;99670.91;4946255;28;96707;-75
2024/02/07 08:12:01;;;;;;;11.93;1.27;;;;;;;7.02;93.41;99676.63;4946841;28;98845;-75
2024/02/07 08:14:28;;;;;;;10.98;1.52;;;;;;;7.13;92.47;99679.69;4941471;28;98116;-75
2024/02/07 08:16:54;;;;;;;7.38;1.23;;;;;;;6.92;93.88;99693.63;4945543;28;97871;-75
2024/02/07 08:19:21;;;;;;;13.65;2.22;;;;;;;6.33;96.05;99681.72;4939481;28;98620;-76
2024/02/07 08:21:47;;;;;;;11.77;1.38;;;;;;;6.71;96.00;99692.63;4948590;28;98721;-76
2024/02/07 08:24:15;;;;;;;10.13;1.63;;;;;;;6.98;93.86;99683.72;4942626;28;99431;-76
2024/02/07 08:26:41;;;;;;;11.25;1.70;;;;;;;7.19;92.85;99692.56;4932740;28;97146;-76
2024/02/07 08:29:07;;;;;;;12.98;2.03;;;;;;;7.13;93.47;99693.66;4945578;28;97289;-76
2024/02/07 08:31:34;;;;;;;12.38;1.63;;;;;;;7.39;91.19;99686.56;4942573;28;97667;-76
2024/02/07 08:34:00;;;;;;;14.52;1.48;;;;;;;7.33;91.76;99685.03;4948695;28;101600;-77
2024/02/07 08:36:27;;;;;;;6.38;1.17;;;;;;;6.85;93.72;99689.50;4944886;28;96821;-75
2024/02/07 08:38:53;;;;;;;8.20;1.15;;;;;;;6.98;92.52;99696.88;4937526;28;98707;-77
2024/02/07 08:41:21;;;;;;;11.82;1.58;;;;;;;6.91;93.92;99694.53;4935363;28;99310;-75
2024/02/07 08:43:47;;;;;;;10.73;1.17;;;;;;;7.17;92.97;99694.41;4941572;28;99014;-76
2024/02/07 08:46:14;;;;;;;8.73;1.05;;;;;;;7.23;91.95;99691.53;4942420;28;97829;-76
2024/02/07 08:48:40;;;;;;;10.07;1.77;;;;;;;7.36;92.44;99703.28;4945599;28;97855;-76
2024/02/07 08:51:07;;;;;;;10.90;1.60;;;;;;;7.62;90.36;99694.38;4942946;28;99046;-76
2024/02/07 08:53:33;;;;;;;14.07;2.55;;;;;;;7.66;90.08;99700.38;4945396;28;99001;-77
2024/02/07 08:55:59;;;;;;;16.90;1.50;;;;;;;8.00;89.57;99712.09;4943782;28;97489;-77
2024/02/07 08:58:27;;;;;;;15.68;1.73;;;;;;;7.83;88.67;99704.03;4939442;28;97111;-76
2024/02/07 09:00:54;;;;;;;9.27;1.60;;;;;;;8.01;88.85;99713.78;4942058;28;99208;-76
2024/02/07 09:03:20;;;;;;;11.18;1.60;;;;;;;8.16;87.02;99712.31;4945301;28;99185;-77
2024/02/07 09:05:46;;;;;;;15.98;1.67;;;;;;;8.03;87.79;99713.72;4943538;28;97652;-76
2024/02/07 09:08:12;;;;;;;6.05;1.60;;;;;;;8.10;86.26;99706.44;4945423;28;96832;-76
2024/02/07 09:10:39;;;;;;;11.40;1.52;;;;;;;7.94;87.14;99714.13;4945454;28;98926;-77
2024/02/07 09:13:05;;;;;;;11.70;1.35;;;;;;;7.68;87.99;99720.41;4946202;28;98795;-76
2024/02/07 09:15:33;;;;;;;6.88;1.60;;;;;;;7.67;88.96;99718.72;4943071;28;97556;-77
2024/02/07 09:17:59;;;;;;;11.52;1.52;;;;;;;7.95;87.13;99719.31;4945297;28;97771;-77
2024/02/07 09:20:25;;;;;;;5.78;1.17;;;;;;;8.21;84.85;99728.75;4945841;28;97864;-77
2024/02/07 09:22:52;;;;;;;11.07;1.85;;;;;;;8.00;85.21;99735.78;4941687;28;99266;-78
2024/02/07 09:25:18;;;;;;;9.70;1.50;;;;;;;8.30;83.44;99736.31;4945677;28;96878;-78
2024/02/07 09:27:45;;;;;;;13.57;1.50;;;;;;;8.27;82.99;99725.84;4943681;28;99727;-79
2024/02/07 09:30:12;;;;;;;14.23;1.67;;;;;;;8.32;82.59;99731.84;4946975;28;98843;-77
2024/02/07 09:32:41;;;;;;;19.65;3.85;;;;;;;7.75;83.45;99728.91;4946253;28;99045;-77
2024/02/07 09:35:08;;;;;;;13.73;2.45;;;;;;;8.29;81.68;99731.91;4944486;28;97133;-77
2024/02/07 09:37:36;;;;;;;12.20;2.08;;;;;;;8.37;79.98;99740.38;4945756;28;96936;-78
2024/02/07 09:40:03;;;;;;;10.70;1.83;;;;;;;8.08;80.63;99745.97;4943516;28;99681;-78
2024/02/07 09:42:30;;;;;;;10.30;1.60;;;;;;;8.54;79.16;99762.50;4945961;28;99076;-78
2024/02/07 09:44:57;;;;;;;13.68;2.00;;;;;;;8.77;76.86;99751.84;4944601;28;97292;-78
2024/02/07 09:47:25;;;;;;;14.45;3.55;;;;;;;9.03;77.04;99764.72;4945010;28;96770;-77
2024/02/07 09:49:55;;;;;;;17.10;2.50;;;;;;;8.87;76.54;99757.53;4946381;28;98949;-77
2024/02/07 09:52:23;;;;;;;16.20;2.40;;;;;;;9.02;75.33;99768.28;4942574;28;100048;-78
2024/02/07 09:54:51;;;;;;;15.13;3.03;;;;;;;9.33;74.27;99778.28;4945852;28;97256;-78
2024/02/07 09:57:18;;;;;;;13.95;2.00;;;;;;;8.99;75.00;99773.66;4943201;28;97305;-78
2024/02/07 09:59:46;;;;;;;18.45;2.03;;;;;;;9.34;74.11;99790.53;4946679;28;98377;-69
2024/02/07 10:02:16;;;;;;;12.15;2.13;;;;;;;9.79;70.68;99774.34;4943545;28;99689;-70
2024/02/07 10:04:49;;;;;;;18.38;3.75;;;;;;;9.52;69.95;99781.78;4945108;28;98029;-70
2024/02/07 10:07:18;;;;;;;9.57;1.98;;;;;;;9.28;70.47;99789.97;4944235;28;98492;-69
2024/02/07 10:09:47;;;;;;;12.45;2.70;;;;;;;9.55;69.21;99789.56;4946097;28;98941;-69
2024/02/07 10:12:14;;;;;;;15.38;1.80;;;;;;;9.50;69.60;99788.06;4945625;28;98877;-70
2024/02/07 10:14:43;;;;;;;12.15;2.20;;;;;;;9.70;69.34;99782.72;4944315;28;96752;-69
2024/02/07 10:17:09;;;;;;;15.15;2.00;;;;;;;9.62;69.66;99791.91;4948191;28;96865;-69
2024/02/07 10:19:36;;;;;;;13.88;2.20;;;;;;;9.41;71.27;99799.88;4948523;28;98723;-69
2024/02/07 10:22:14;;;;;;;18.77;2.80;;;;;;;9.33;72.19;99809.06;4947938;28;98823;-70
2024/02/07 10:24:42;;;;;;;16.15;2.25;;;;;;;9.46;71.16;99805.78;4948787;28;97894;-69
2024/02/07 10:27:08;;;;;;;20.17;3.25;;;;;;;9.74;70.69;99815.06;4948361;28;96787;-69
2024/02/07 10:29:34;;;;;;;15.57;1.95;;;;;;;9.04;71.43;99816.50;4945522;28;99125;-69
2024/02/07 10:32:01;;;;;;;16.63;2.88;;;;;;;9.07;71.25;99821.63;4949113;28;98764;-69
2024/02/07 10:34:27;;;;;;;16.75;2.30;;;;;;;9.07;71.29;99808.44;4944115;28;98488;-69
2024/02/07 10:36:59;;;;;;;12.35;3.40;;;;;;;8.96;72.13;99830.94;4950169;28;97044;-70
2024/02/07 10:39:25;;;;;;;17.73;3.10;;;;;;;9.16;71.72;99817.72;4948026;28;98491;-69
2024/02/07 10:41:53;;;;;;;15.60;2.42;;;;;;;9.29;69.98;99818.91;4946883;28;97763;-70
2024/02/07 10:44:19;;;;;;;20.23;4.90;;;;;;;9.52;69.19;99825.75;4945764;28;96993;-69
2024/02/07 10:46:45;;;;;;;15.57;4.03;;;;;;;9.86;67.25;99838.25;4949031;28;96859;-69
2024/02/07 10:49:12;;;;;;;15.82;2.88;;;;;;;9.37;67.95;99823.84;4949951;28;101009;-69
2024/02/07 10:51:40;;;;;;;19.58;2.60;;;;;;;9.34;68.99;99847.69;4941353;28;98820;-70
2024/02/07 10:54:07;;;;;;;14.95;2.75;;;;;;;9.11;69.52;99846.94;4945457;28;97407;-69
2024/02/07 10:56:35;;;;;;;18.75;2.13;;;;;;;9.71;68.94;99849.53;4946547;28;97722;-70
2024/02/07 10:59:04;;;;;;;13.95;2.30;;;;;;;10.04;64.05;99849.75;4941816;28;99014;-71
2024/02/07 11:01:31;;;;;;;17.08;2.20;;;;;;;10.21;58.75;99853.31;4945978;28;101521;-70
2024/02/07 11:03:58;;;;;;;17.13;1.80;;;;;;;10.47;53.63;99846.75;4946051;28;97916;-69
2024/02/07 11:06:26;;;;;;;12.98;2.35;;;;;;;10.51;50.37;99850.09;4949915;28;96741;-70
2024/02/07 11:08:53;;;;;;;16.92;2.03;;;;;;;10.19;48.97;99849.03;4937005;28;99436;-77
2024/02/07 11:11:20;;;;;;;15.13;2.20;;;;;;;10.44;49.38;99844.25;4935200;28;97694;-69
2024/02/07 11:13:48;;;;;;;16.60;1.90;;;;;;;10.36;48.29;99846.44;4932634;28;100167;-69
2024/02/07 11:16:15;;;;;;;10.52;1.55;;;;;;;10.19;49.37;99844.59;4938982;28;98376;-76
2024/02/07 11:18:42;;;;;;;11.13;2.38;;;;;;;10.35;49.56;99845.59;4941220;28;99007;-76
2024/02/07 11:21:12;;;;;;;12.05;1.65;;;;;;;10.36;48.82;99841.16;4946875;28;98862;-76
2024/02/07 11:23:40;;;;;;;13.07;2.10;;;;;;;10.70;48.95;99837.69;4945824;28;97166;-75
2024/02/07 11:26:07;;;;;;;9.95;2.00;;;;;;;10.81;47.79;99853.00;4947092;28;97802;-77
2024/02/07 11:28:34;;;;;;;10.82;1.50;;;;;;;10.09;49.09;99850.38;4942409;28;99273;-78
2024/02/07 11:31:02;;;;;;;17.38;2.28;;;;;;;10.07;49.16;99849.56;4943835;28;98838;-76
2024/02/07 11:33:33;;;;;;;13.23;2.28;;;;;;;10.50;48.92;99859.81;4948407;28;97257;-77
2024/02/07 11:36:05;;;;;;;21.00;3.22;;;;;;;10.18;48.97;99847.31;4946375;28;97462;-77
2024/02/07 11:38:36;;;;;;;15.27;1.95;;;;;;;10.12;49.52;99847.56;4946472;28;101876;-76
2024/02/07 11:41:05;;;;;;;11.02;1.33;;;;;;;10.55;48.44;99843.75;4948137;28;99658;-76
2024/02/07 11:43:31;;;;;;;13.43;1.75;;;;;;;10.92;47.37;99842.75;4947134;28;98309;-78
2024/02/07 11:46:05;;;;;;;14.40;2.00;;;;;;;9.99;47.99;99829.69;4948818;28;96841;-77
2024/02/07 11:48:38;;;;;;;10.70;1.50;;;;;;;9.92;49.26;99840.59;4946179;28;100902;-77
2024/02/07 11:51:06;;;;;;;13.05;1.63;;;;;;;10.05;47.94;99847.00;4948534;28;97850;-77
2024/02/07 11:53:32;;;;;;;20.33;2.33;;;;;;;10.35;47.95;99845.59;4945254;28;96860;-77
2024/02/07 11:55:59;;;;;;;17.13;1.88;;;;;;;10.82;47.66;99844.16;4949144;28;97507;-76
2024/02/07 11:58:26;;;;;;;12.68;2.60;;;;;;;10.61;45.80;99851.38;4950112;28;99365;-78
2024/02/07 12:00:52;;;;;;;12.25;1.88;;;;;;;10.91;46.31;99852.47;4949048;28;99135;-77
2024/02/07 12:03:18;;;;;;;12.95;1.70;;;;;;;10.91;45.96;99865.66;4946877;28;97197;-78
2024/02/07 12:05:46;;;;;;;9.55;2.00;;;;;;;10.88;46.21;99871.13;4947838;28;97229;-70
2024/02/07 12:08:13;;;;;;;16.55;1.70;;;;;;;10.82;45.13;99875.88;4948217;28;98954;-69
2024/02/07 12:10:40;;;;;;;11.48;1.58;;;;;;;10.13;46.45;99859.84;4947990;28;99088;-69
2024/02/07 12:13:06;;;;;;;14.05;1.90;;;;;;;10.43;45.72;99873.41;4948383;28;97829;-69
2024/02/07 12:15:32;;;;;;;11.93;1.40;;;;;;;9.91;45.93;99867.94;4947550;28;96884;-69
2024/02/07 12:17:59;;;;;;;14.27;2.47;;;;;;;10.48;46.63;99879.31;4948189;28;101936;-69
2024/02/07 12:20:29;;;;;;;6.60;1.95;;;;;;;10.52;45.61;99884.38;4945580;28;98826;-70
2024/02/07 12:22:59;;;;;;;15.80;1.77;;;;;;;10.50;45.19;99877.47;4948196;28;96812;-70
2024/02/07 12:25:25;;;;;;;12.82;1.90;;;;;;;10.37;45.61;99879.84;4947383;28;97341;-69
2024/02/07 12:27:52;;;;;;;15.77;1.95;;;;;;;10.43;46.13;99882.19;4948474;28;97656;-70
2024/02/07 12:30:18;;;;;;;21.08;2.17;;;;;;;10.72;45.55;99883.38;4944643;28;99040;-71
2024/02/07 12:32:45;;;;;;;12.98;1.83;;;;;;;11.05;45.00;99894.91;4947593;28;97218;-71
2024/02/07 12:35:12;;;;;;;20.77;2.33;;;;;;;11.23;44.14;99890.47;4947452;28;97193;-69
2024/02/07 12:37:39;;;;;;;11.82;1.58;;;;;;;11.51;43.33;99884.59;4954992;28;103030;-76